Grand Coteau, LA (70541)

3:00 PM CDT on July 28, 2016 (GMT -0500)
N5OB | | Change Station

Elev 60 ft 30.43 °N, 92.09 °W | Updated 23 seconds ago

Scattered Clouds
Scattered Clouds
77.4 °F
Feels Like 79 °F
N
1.0
Wind Variable Wind from NNE
Gusts 2.0 mph

Today
High -- | Low -- °F
--% Chance of Precip.
Yesterday
High -- | Low -- °F
Precip. -- in
Pressure 30.01 in
Visibility 10.0 miles
Clouds Scattered Clouds 6500 ft
Heat Index 79 °F
Dew Point 72 °F
Humidity 84%
Rainfall 0.20 in
Snow Depth Not available.
6:24 AM 8:04 PM
Waning Crescent, 29% visible
METAR KOPL 281955Z AUTO 16012G16KT 10SM SCT065 30/23 A3001 RMK AO2 LTG DSNT NW THRU SE T02980231 PWINO
Pressure 30.01 in
Visibility 10.0 miles
Clouds Scattered Clouds 6500 ft
Heat Index 79 °F
Dew Point 72 °F
Humidity 84%
Rainfall 0.20 in
Snow Depth Not available.
6:24 AM 8:04 PM
Waning Crescent, 29% visible
METAR KOPL 281955Z AUTO 16012G16KT 10SM SCT065 30/23 A3001 RMK AO2 LTG DSNT NW THRU SE T02980231 PWINO

10-Day Weather Forecast

Almanac

Astronomy

Jul. 28, 2016 Rise Set
Actual Time
Civil Twilight
Nautical Twilight
Astronomical Twilight
Moon
Length of Visible Light
Length of Day
Tomorrow will be .
, % of the Moon is Illuminated

Today's Extremes

State Highs State Lows

Community

WunderPhotos

Upload Photos

1,928,194 photos uploaded!

WunderBlog® & News

Nearby

Air Quality

  Air Quality AQ Index Pollutant
Not available.

Snow Depth

Station Depth Elevation

Earthquake Activity

City Distance Mag. Time & Date
Minimum magnitude displayed is 2.5.

Coastal Water Temperatures

Place Temperature

Stations

Nearby Weather Stations

Station Location Temp. Windchill Dew Point Humidity Wind Precip. Elev Updated Type
                   

Watches & Warnings

There are currently no watches in effect.